Latest Weather Observations for Karijini North

IDW60801

Issued at 10:13 am WST Tuesday 22 September 2020 (issued every 10 minutes, with the page automatically refreshed every 10 minutes)

About weather observations | Map of weather stations | Latest weather observations for WA | Other Formats
Station Details ID: 005098 Name: KARIJINI NORTH Lat: -22.30 Lon: 118.45 Height: 474.0 m
Data from the previous 72 hours. | See also: Recent months at Karijini North
Date/Time
WST
Temp
°C
App
Temp
°C
Dew
Point
°C
Rel
Hum
%
Delta-T
°C
Wind Press
QNH
hPa
Press
MSL
hPa
Rain since
9am
mm
Dir  Spd
km/h
Gust
km/h
Spd
kts
Gust
kts
22/10:00am 24.6 15.9 -9.0 10 13.3 E 30 44 16 24 1019.7 1017.2 0.0
22/09:30am 24.2 15.2 -8.1 11 13.0 E 32 43 17 23 1019.8 1017.3 0.0
22/09:10am 23.6 14.4 -8.5 11 12.7 E 33 52 18 28 1019.8 1017.3 0.0
22/09:00am 23.1 13.6 -7.8 12 12.3 E 35 50 19 27 1019.8 1017.3 0.0
22/08:51am 22.9 13.8 -9.1 11 12.5 E 32 50 17 27 1019.9 1017.4 0.0
22/08:30am 22.4 13.4 -8.4 12 12.1 E 32 43 17 23 1020.0 1017.5 0.0
22/08:00am 21.6 13.7 -9.0 12 11.7 E 26 41 14 22 1019.9 1017.4 0.0
22/07:30am 20.9 13.8 -8.5 13 11.3 E 22 39 12 21 1019.6 1017.1 0.0
22/07:00am 19.6 13.4 -8.6 14 10.7 ESE 17 24 9 13 1019.2 1016.7 0.0
22/06:30am 18.8 12.6 -9.2 14 10.4 SE 17 24 9 13 1018.9 1016.4 0.0
22/06:00am 18.2 12.0 -8.8 15 10.0 ESE 17 20 9 11 1018.4 1015.9 0.0
22/05:30am 18.3 12.9 -8.7 15 10.1 SE 13 22 7 12 1017.7 1015.2 0.0
22/05:00am 18.5 12.7 -8.6 15 10.2 SE 15 20 8 11 1017.3 1014.8 0.0
22/04:30am 19.0 13.2 -9.1 14 10.5 SE 15 26 8 14 1017.0 1014.5 0.0
22/04:00am 19.3 13.1 -8.8 14 10.6 SE 17 26 9 14 1016.9 1014.4 0.0
22/03:30am 19.5 14.1 -8.7 14 10.7 SE 13 20 7 11 1016.8 1014.3 0.0
22/03:00am 18.8 14.7 -9.2 14 10.4 ESE 6 17 3 9 1016.9 1014.4 0.0
22/02:30am 20.3 14.9 -9.0 13 11.1 SE 13 20 7 11 1017.0 1014.5 0.0
22/02:00am 21.0 13.8 -9.4 12 11.5 SE 22 35 12 19 1016.7 1014.2 0.0
22/01:30am 21.3 14.5 -9.2 12 11.7 SSE 20 32 11 17 1016.9 1014.4 0.0
22/01:00am 21.5 15.2 -10.2 11 11.9 SE 17 26 9 14 1016.9 1014.4 0.0
22/12:30am 21.7 15.4 -10.0 11 12.0 SE 17 26 9 14 1017.2 1014.7 0.0
22/12:00am 22.0 15.7 -9.8 11 12.1 SE 17 22 9 12 1017.3 1014.8 0.0
 
Date/Time
WST
Temp
°C
App
Temp
°C
Dew
Point
°C
Rel
Hum
%
Delta-T
°C
Wind Press
QNH
hPa
Press
MSL
hPa
Rain since
9am
mm
Dir  Spd
km/h
Gust
km/h
Spd
kts
Gust
kts
21/11:30pm 22.2 16.3 -9.6 11 12.2 SSE 15 20 8 11 1017.5 1015.0 0.0
21/11:00pm 22.5 16.2 -10.6 10 12.5 SE 17 20 9 11 1017.5 1015.0 0.0
21/10:30pm 22.9 17.0 -10.3 10 12.6 SSE 15 22 8 12 1017.7 1015.2 0.0
21/10:00pm 22.1 17.0 -9.7 11 12.1 SE 11 15 6 8 1017.9 1015.4 0.0
21/09:30pm 22.9 17.5 -8.0 12 12.3 SE 13 17 7 9 1017.7 1015.2 0.0
21/09:00pm 23.7 17.9 -8.5 11 12.8 SE 15 19 8 10 1017.6 1015.1 0.0
21/08:30pm 24.1 18.7 -8.2 11 13.0 SSE 13 19 7 10 1017.5 1015.0 0.0
21/08:00pm 24.4 19.0 -7.9 11 13.1 SE 13 20 7 11 1017.2 1014.7 0.0
21/07:30pm 24.7 19.3 -8.9 10 13.4 SE 13 17 7 9 1016.8 1014.3 0.0
21/07:00pm 24.6 19.6 -7.8 11 13.1 ESE 11 15 6 8 1016.4 1013.8 0.0
21/06:30pm 24.6 19.9 -9.0 10 13.3 E 9 11 5 6 1015.9 1013.4 0.0
21/06:00pm 26.6 20.8 -8.8 9 14.4 NE 15 19 8 10 1015.4 1012.9 0.0
21/05:30pm 28.1 22.8 -7.7 9 15.1 NE 13 19 7 10 1015.0 1012.5 0.0
21/05:00pm 28.9 23.1 -8.6 8 15.6 NE 15 20 8 11 1014.7 1012.2 0.0
21/04:30pm 28.7 23.3 -8.8 8 15.5 ENE 13 20 7 11 1014.6 1012.1 0.0
21/04:00pm 29.2 24.6 -8.4 8 15.8 NE 9 15 5 8 1014.6 1012.1 0.0
21/03:30pm 29.3 23.9 -8.3 8 15.8 NE 13 28 7 15 1014.6 1012.1 0.0
21/03:00pm 29.4 24.8 -8.2 8 15.8 ENE 9 17 5 9 1014.7 1012.2 0.0
21/02:30pm 28.7 23.4 -7.3 9 15.3 NNE 13 28 7 15 1015.0 1012.5 0.0
21/02:00pm 29.4 24.8 -8.2 8 15.8 NE 9 17 5 9 1015.3 1012.8 0.0
21/01:30pm 28.0 22.7 -7.8 9 15.0 N 13 26 7 14 1015.7 1013.2 0.0
21/01:00pm 28.1 22.8 -7.7 9 15.0 ENE 13 30 7 16 1016.3 1013.7 0.0
21/12:30pm 27.5 21.7 -8.2 9 14.8 NE 15 26 8 14 1016.8 1014.3 0.0
21/12:00pm 26.6 20.9 -7.5 10 14.2 E 15 24 8 13 1017.3 1014.8 0.0
21/11:30am 25.2 19.9 -7.3 11 13.4 ESE 13 24 7 13 1017.8 1015.3 0.0
21/11:00am 24.9 19.2 -7.5 11 13.2 E 15 26 8 14 1018.1 1015.6 0.0
21/10:30am 24.3 18.7 -6.9 12 12.9 ESE 15 20 8 11 1018.7 1016.2 0.0
21/10:00am 22.9 17.6 -6.9 13 12.1 E 13 22 7 12 1018.9 1016.4 0.0
21/09:30am 23.1 17.2 -5.8 14 12.0 ESE 17 24 9 13 1019.1 1016.6 0.0
21/09:00am 21.6 16.0 -6.1 15 11.3 SE 15 20 8 11 1019.3 1016.8 0.0
21/08:30am 20.6 14.7 -5.3 17 10.6 SSE 17 20 9 11 1019.3 1016.8 0.0
21/08:00am 19.1 12.9 -5.0 19 9.8 SSE 19 30 10 16 1019.2 1016.7 0.0
21/07:30am 18.5 13.0 -5.5 19 9.6 SSE 15 30 8 16 1018.8 1016.3 0.0
21/07:00am 17.6 10.4 -5.0 21 9.0 SSE 24 43 13 23 1018.4 1015.9 0.0
21/06:30am 16.9 9.3 -5.5 21 8.8 S 26 41 14 22 1017.8 1015.3 0.0
21/06:00am 16.8 8.1 -5.6 21 8.8 S 32 50 17 27 1017.3 1014.8 0.0
21/05:30am 17.0 8.0 -6.1 20 9.0 S 33 52 18 28 1017.0 1014.5 0.0
21/05:10am 17.0 8.2 -6.1 20 9.0 S 32 50 17 27 1016.6 1014.1 0.0
21/05:00am 17.1 8.3 -6.0 20 9.0 S 32 46 17 25 1016.5 1014.0 0.0
21/04:30am 17.4 8.4 -6.4 19 9.2 S 33 54 18 29 1016.2 1013.6 0.0
21/04:00am 17.6 8.5 -7.0 18 9.4 S 33 52 18 28 1016.0 1013.5 0.0
21/03:30am 18.0 9.1 -7.4 17 9.7 S 32 50 17 27 1015.8 1013.3 0.0
21/03:28am 17.9 9.3 -7.5 17 9.7 S 30 50 16 27 1015.8 1013.3 0.0
21/03:00am 18.2 9.0 -8.0 16 9.9 S 33 46 18 25 1015.8 1013.3 0.0
21/02:53am 18.3 9.1 -8.7 15 10.1 S 33 52 18 28 1015.8 1013.3 0.0
21/02:30am 18.7 9.4 -9.3 14 10.4 S 33 46 18 25 1015.7 1013.2 0.0
21/02:00am 18.9 10.1 -10.1 13 10.6 S 30 41 16 22 1015.7 1013.2 0.0
21/01:30am 19.5 10.3 -10.6 12 11.0 S 32 46 17 25 1015.7 1013.2 0.0
21/01:00am 19.8 10.4 -10.4 12 11.1 S 33 48 18 26 1015.7 1013.2 0.0
21/12:30am 20.3 10.6 -10.0 12 11.3 S 35 48 19 26 1015.9 1013.4 0.0
21/12:00am 20.6 11.3 -9.8 12 11.4 S 33 43 18 23 1016.2 1013.6 0.0
 
Date/Time
WST
Temp
°C
App
Temp
°C
Dew
Point
°C
Rel
Hum
%
Delta-T
°C
Wind Press
QNH
hPa
Press
MSL
hPa
Rain since
9am
mm
Dir  Spd
km/h
Gust
km/h
Spd
kts
Gust
kts
20/11:30pm 21.1 11.7 -10.5 11 11.8 S 33 48 18 26 1016.0 1013.5 0.0
20/11:00pm 21.3 12.0 -10.3 11 11.8 S 33 44 18 24 1016.2 1013.6 0.0
20/10:30pm 21.7 12.6 -10.0 11 12.0 S 32 43 17 23 1016.2 1013.6 0.0
20/10:00pm 22.1 12.7 -10.9 10 12.3 S 33 52 18 28 1016.4 1013.8 0.0
20/09:51pm 22.4 13.0 -10.7 10 12.4 S 33 52 18 28 1016.4 1013.8 0.0
20/09:30pm 22.7 12.2 -10.4 10 12.6 S 39 54 21 29 1016.4 1013.8 0.0
20/09:02pm 23.1 13.4 -10.1 10 12.7 S 35 54 19 29 1016.3 1013.7 0.0
20/09:00pm 23.1 13.7 -11.5 9 12.9 S 33 48 18 26 1016.3 1013.7 0.0
20/08:44pm 23.3 14.1 -11.3 9 13.0 S 32 54 17 29 1016.2 1013.6 0.0
20/08:30pm 23.4 14.2 -11.2 9 13.0 S 32 44 17 24 1016.0 1013.5 0.0
20/08:05pm 23.6 15.2 -9.8 10 12.9 S 28 46 15 25 1015.7 1013.2 0.0
20/08:00pm 23.9 14.7 -10.9 9 13.2 S 32 46 17 25 1015.6 1013.1 0.0
20/07:30pm 24.4 15.6 -10.5 9 13.5 S 30 44 16 24 1015.2 1012.7 0.0
20/07:09pm 24.8 16.4 -10.2 9 13.6 S 28 46 15 25 1015.1 1012.6 0.0
20/07:00pm 25.0 17.0 -10.0 9 13.7 S 26 41 14 22 1015.0 1012.5 0.0
20/06:30pm 25.6 17.6 -9.6 9 14.0 S 26 35 14 19 1014.7 1012.2 0.0
20/06:00pm 26.3 18.3 -10.5 8 14.5 SSW 26 35 14 19 1014.4 1011.8 0.0
20/05:30pm 27.3 20.7 -9.8 8 14.9 SSW 19 26 10 14 1014.2 1011.6 0.0
20/05:00pm 28.4 21.7 -7.5 9 15.2 SSW 20 28 11 15 1014.0 1011.4 0.0
20/04:30pm 28.5 20.7 -7.4 9 15.2 SSW 26 35 14 19 1013.6 1011.1 0.0
20/04:00pm 29.7 23.1 -6.5 9 15.8 SW 20 35 11 19 1013.5 1011.0 0.0
20/03:30pm 29.7 23.3 -5.1 10 15.5 S 20 33 11 18 1013.5 1011.0 0.0
20/03:00pm 29.5 23.1 -5.3 10 15.4 S 20 32 11 17 1013.5 1011.0 0.0
20/02:30pm 30.7 25.2 -1.9 12 15.5 SSW 17 30 9 16 1013.5 1011.0 0.0
20/02:00pm 29.5 23.7 0.2 15 14.3 SW 20 32 11 17 1014.0 1011.4 0.0
20/01:30pm 28.8 23.1 0.5 16 13.8 S 20 30 11 16 1014.4 1011.8 0.0
20/01:00pm 28.6 23.7 2.0 18 13.3 SE 17 26 9 14 1014.7 1012.2 0.0
20/12:30pm 27.6 23.6 2.6 20 12.6 WNW 13 26 7 14 1015.1 1012.6 0.0
20/12:00pm 26.9 22.9 2.7 21 12.1 SW 13 22 7 12 1015.6 1013.1 0.0
20/11:30am 27.3 22.9 5.0 24 11.7 S 17 24 9 13 1016.0 1013.5 0.0
20/11:00am 27.2 23.7 5.5 25 11.4 SSE 13 24 7 13 1016.3 1013.7 0.0
20/10:30am 25.5 22.4 5.7 28 10.4 SW 11 15 6 8 1016.6 1014.1 0.0
20/10:00am 24.5 20.0 6.3 31 9.6 S 19 30 10 16 1016.8 1014.3 0.0
20/09:30am 23.3 18.8 7.0 35 8.6 S 20 32 11 17 1017.0 1014.5 0.0
20/09:00am 22.3 16.2 8.1 40 7.6 S 30 43 16 23 1017.0 1014.5 0.0
20/08:30am 21.5 15.7 8.1 42 7.2 S 28 39 15 21 1016.8 1014.3 0.0
20/08:00am 20.9 14.9 8.5 45 6.7 S 30 44 16 24 1016.7 1014.2 0.0
20/07:30am 20.1 13.5 8.4 47 6.2 S 33 48 18 26 1016.0 1013.5 0.0
20/07:00am 19.6 13.6 8.6 49 5.9 S 30 44 16 24 1015.5 1013.0 0.0
20/06:30am 19.1 12.2 8.7 51 5.5 S 35 50 19 27 1015.2 1012.7 0.0
20/06:00am 19.3 12.8 8.3 49 5.8 S 32 43 17 23 1014.9 1012.4 0.0
20/05:30am 19.8 13.2 7.9 46 6.3 SSW 32 50 17 27 1014.4 1011.8 0.0
20/05:00am 20.2 13.4 6.9 42 6.9 SSW 32 52 17 28 1014.1 1011.5 0.0
20/04:35am 20.7 14.2 6.6 40 7.3 SSW 30 50 16 27 1013.5 1011.0 0.0
20/04:30am 20.7 14.2 6.3 39 7.4 SSW 30 44 16 24 1013.5 1011.0 0.0
20/04:00am 21.1 13.9 5.9 37 7.8 SSW 33 43 18 23 1013.0 1010.5 0.0
20/03:30am 21.5 14.4 5.4 35 8.2 SSW 32 41 17 22 1013.0 1010.5 0.0
20/03:00am 21.9 14.6 5.3 34 8.5 SSW 33 44 18 24 1013.1 1010.6 0.0
20/02:30am 22.2 15.8 5.2 33 8.7 SSW 28 37 15 20 1013.3 1010.8 0.0
20/02:00am 22.7 15.9 5.2 32 8.9 SSW 30 41 16 22 1013.4 1010.9 0.0
20/01:46am 22.7 16.2 4.7 31 9.1 SSW 28 46 15 25 1013.5 1011.0 0.0
20/01:30am 23.1 15.9 5.1 31 9.2 SSW 32 43 17 23 1013.4 1010.9 0.0
20/01:00am 23.9 18.3 5.3 30 9.6 SSW 24 37 13 20 1013.7 1011.2 0.0
20/12:30am 24.4 19.2 5.7 30 9.7 SSW 22 35 12 19 1014.0 1011.4 0.0
20/12:00am 24.5 19.9 5.8 30 9.8 SW 19 30 10 16 1014.3 1011.7 0.0
 
Date/Time
WST
Temp
°C
App
Temp
°C
Dew
Point
°C
Rel
Hum
%
Delta-T
°C
Wind Press
QNH
hPa
Press
MSL
hPa
Rain since
9am
mm
Dir  Spd
km/h
Gust
km/h
Spd
kts
Gust
kts
19/11:30pm 25.4 19.9 6.1 29 10.2 SW 24 35 13 19 1014.3 1011.7 0.0
19/11:00pm 25.3 20.7 5.5 28 10.3 SW 19 28 10 15 1014.3 1011.7 0.0
19/10:30pm 25.9 20.3 5.5 27 10.7 SW 24 35 13 19 1014.5 1011.9 0.0
19/10:00pm 26.3 20.2 4.7 25 11.2 SW 26 39 14 21 1014.4 1011.8 0.0
19/09:30pm 26.8 20.8 5.1 25 11.3 SW 26 39 14 21 1014.4 1011.8 0.0
19/09:00pm 27.0 21.3 4.7 24 11.6 SW 24 33 13 18 1014.3 1011.7 0.0
19/08:30pm 27.3 22.4 5.0 24 11.7 WSW 20 30 11 16 1013.9 1011.3 0.0
19/08:00pm 27.6 22.8 4.6 23 12.0 WSW 19 26 10 14 1013.6 1011.1 0.0
19/07:30pm 28.4 22.5 4.0 21 12.6 WSW 24 33 13 18 1013.4 1010.9 0.0
19/07:00pm 29.0 23.8 2.3 18 13.5 WSW 19 28 10 15 1012.9 1010.4 0.0
19/06:30pm 29.3 23.3 0.9 16 14.0 WSW 22 35 12 19 1012.4 1009.8 0.0
19/06:00pm 30.0 23.5 0.6 15 14.5 W 24 39 13 21 1012.0 1009.4 0.0
19/05:30pm 31.0 24.5 0.4 14 15.1 W 24 35 13 19 1011.5 1009.0 0.0
19/05:00pm 31.8 24.5 0.0 13 15.7 WNW 28 41 15 22 1011.4 1008.9 0.0
19/04:30pm 32.5 24.7 -0.5 12 16.2 WNW 30 50 16 27 1011.1 1008.6 0.0
19/04:26pm 32.5 25.1 -0.5 12 16.2 WNW 28 50 15 27 1011.0 1008.5 0.0
19/04:00pm 32.8 24.9 -1.5 11 16.7 WNW 30 43 16 23 1011.0 1008.5 0.0
19/03:49pm 33.0 25.5 -1.4 11 16.7 W 28 46 15 25 1011.1 1008.6 0.0
19/03:30pm 33.3 27.0 -1.1 11 16.9 W 22 44 12 24 1010.9 1008.4 0.0
19/03:00pm 33.5 26.2 0.2 12 16.7 NW 28 43 15 23 1011.1 1008.6 0.0
19/02:30pm 34.3 28.5 -0.4 11 17.3 W 20 32 11 17 1011.4 1008.9 0.0
19/02:15pm 33.2 25.5 0.0 12 16.6 NW 30 48 16 26 1011.4 1008.9 0.0
19/02:00pm 33.1 26.5 -0.1 12 16.5 WNW 24 43 13 23 1011.8 1009.2 0.0
19/01:30pm 33.7 26.5 0.4 12 16.8 WNW 28 39 15 21 1012.0 1009.4 0.0
19/01:00pm 33.2 25.5 0.0 12 16.6 WNW 30 44 16 24 1012.6 1010.0 0.0
19/12:30pm 32.7 24.4 -0.4 12 16.3 W 33 52 18 28 1013.0 1010.5 0.0
19/12:07pm 33.2 25.7 -1.2 11 16.8 W 28 50 15 27 1013.3 1010.8 0.0
19/12:00pm 31.7 23.6 -0.1 13 15.7 WNW 32 48 17 26 1013.4 1010.9 0.0
19/11:44am 32.8 25.5 -0.3 12 16.4 WNW 28 54 15 29 1013.6 1011.1 0.0
19/11:30am 31.4 24.0 1.7 15 15.1 WNW 30 44 16 24 1014.0 1011.4 0.0
19/11:04am 31.9 24.8 1.1 14 15.5 NW 28 46 15 25 1014.2 1011.6 0.0
19/11:00am 32.0 24.3 2.1 15 15.3 NW 32 48 17 26 1014.2 1011.6 0.0
19/10:52am 32.1 25.4 1.3 14 15.6 NW 26 48 14 26 1014.2 1011.6 0.0
19/10:30am 30.0 25.6 4.6 20 13.4 WNW 17 30 9 16 1014.7 1012.2 0.0

Other formats

Comma delimited format used in spreadsheet applications
http://www.bom.gov.au/fwo/IDW60801/IDW60801.94330.axf

JavaScript Object Notation format (JSON) in row-major order
http://www.bom.gov.au/fwo/IDW60801/IDW60801.94330.json

Data quality

Most of these data are generated automatically and are frequently updated. Quality checks on data are not normally performed. It is possible for incorrect values to appear. Refer to information at About Latest Weather Observations and please check the disclaimer before using these data.